createdAt,value
2023-05-21T00:00:44.289Z,92504.59
2023-05-21T00:03:16.733Z,92508.38
2023-05-21T00:05:47.958Z,92499.78
2023-05-21T00:08:17.556Z,92497.84
2023-05-21T00:10:46.984Z,92499.66
2023-05-21T00:13:16.525Z,92496.34
2023-05-21T00:15:46.010Z,92488.44
2023-05-21T00:18:15.481Z,92485.53
2023-05-21T00:20:46.416Z,92487.19
2023-05-21T00:23:18.908Z,92479.44
2023-05-21T00:25:48.382Z,92482.22
2023-05-21T00:28:17.868Z,92483.50
2023-05-21T00:30:48.001Z,92484.47
2023-05-21T00:33:17.533Z,92479.22
2023-05-21T00:35:48.268Z,92476.06
2023-05-21T00:38:18.829Z,92462.78
2023-05-21T00:40:48.207Z,92463.72
2023-05-21T00:43:18.079Z,92461.09
2023-05-21T00:45:48.771Z,92446.69
2023-05-21T00:49:33.922Z,92453.75
2023-05-21T00:52:03.381Z,92452.56
2023-05-21T00:54:33.020Z,92445.50
2023-05-21T00:57:04.586Z,92458.63
2023-05-21T00:59:35.114Z,92448.28
2023-05-21T01:02:07.104Z,92451.72
2023-05-21T01:04:38.612Z,92446.69
2023-05-21T01:07:10.062Z,92443.75
2023-05-21T01:09:39.706Z,92451.81
2023-05-21T01:12:11.131Z,92443.75
2023-05-21T01:14:41.651Z,92450.97
2023-05-21T01:17:13.203Z,92438.50
2023-05-21T01:19:46.613Z,92447.06
2023-05-21T01:22:17.195Z,92457.44
2023-05-21T01:24:53.296Z,92448.72
2023-05-21T01:27:22.960Z,92438.03
2023-05-21T01:29:52.356Z,92435.56
2023-05-21T01:32:34.797Z,92444.13
2023-05-21T01:35:11.464Z,92431.78
2023-05-21T01:37:48.568Z,92443.81
2023-05-21T01:40:30.855Z,92422.78
2023-05-21T01:43:01.714Z,92438.63
2023-05-21T01:45:34.631Z,92445.69
2023-05-21T01:48:06.165Z,92426.28
2023-05-21T01:50:36.787Z,92428.41
2023-05-21T01:53:06.273Z,92439.09
2023-05-21T01:55:39.802Z,92431.03
2023-05-21T01:58:09.249Z,92440.72
2023-05-21T02:00:40.216Z,92428.94
2023-05-21T02:03:10.113Z,92422.84
2023-05-21T02:05:39.701Z,92433.88
2023-05-21T02:08:09.753Z,92430.63
2023-05-21T02:10:40.739Z,92429.66
2023-05-21T02:13:10.055Z,92439.34
2023-05-21T02:15:40.482Z,92440.50
2023-05-21T02:18:09.979Z,92447.41
2023-05-21T02:20:39.469Z,92432.59
2023-05-21T02:23:08.790Z,92449.03
2023-05-21T02:25:39.979Z,92439.22
2023-05-21T02:28:09.353Z,92440.50
2023-05-21T02:30:39.156Z,92433.25
2023-05-21T02:33:09.504Z,92432.44
2023-05-21T02:35:39.005Z,92428.16
2023-05-21T02:38:09.349Z,92441.44
2023-05-21T02:40:40.210Z,92436.25
2023-05-21T02:43:09.689Z,92432.44
2023-05-21T02:45:39.372Z,92440.63
2023-05-21T02:48:09.057Z,92442.31
2023-05-21T02:50:38.518Z,92431.78
2023-05-21T02:53:08.167Z,92436.06
2023-05-21T02:55:37.965Z,92439.81
2023-05-21T02:58:09.100Z,92440.44
2023-05-21T03:00:38.530Z,92436.28
2023-05-21T03:03:08.206Z,92434.66
2023-05-21T03:05:38.162Z,92437.44
2023-05-21T03:08:08.172Z,92440.91
2023-05-21T03:10:38.897Z,92439.09
2023-05-21T03:13:10.049Z,92444.81
2023-05-21T03:15:40.101Z,92446.44
2023-05-21T03:18:09.705Z,92439.69
2023-05-21T03:20:43.823Z,92460.06
2023-05-21T03:23:16.443Z,92457.44
2023-05-21T03:25:47.361Z,92453.28
2023-05-21T03:28:19.067Z,92449.19
2023-05-21T03:30:49.899Z,92453.28
2023-05-21T03:33:20.117Z,92443.28
2023-05-21T03:35:49.501Z,92441.50
2023-05-21T03:38:19.098Z,92441.00
2023-05-21T03:40:48.910Z,92445.41
2023-05-21T03:43:19.829Z,92440.47
2023-05-21T03:45:49.454Z,92449.69
2023-05-21T03:50:32.581Z,92442.94
2023-05-21T03:53:02.331Z,92442.47
2023-05-21T03:55:31.707Z,92451.34
2023-05-21T03:58:01.046Z,92448.72
2023-05-21T04:00:30.459Z,92445.09
2023-05-21T04:02:59.990Z,92446.91
2023-05-21T04:05:30.924Z,92450.34
2023-05-21T04:08:00.370Z,92445.47
2023-05-21T04:10:29.994Z,92447.50
2023-05-21T04:12:59.471Z,92447.34
2023-05-21T04:15:28.974Z,92441.63
2023-05-21T04:17:58.849Z,92435.88
2023-05-21T04:20:28.325Z,92434.00
2023-05-21T04:22:59.424Z,92446.88
2023-05-21T04:25:28.848Z,92444.88
2023-05-21T04:27:58.366Z,92449.34
2023-05-21T04:30:27.844Z,92456.19
2023-05-21T04:32:58.234Z,92450.84
2023-05-21T04:35:27.617Z,92449.06
2023-05-21T04:37:59.076Z,92454.88
2023-05-21T04:40:28.531Z,92457.03
2023-05-21T04:42:58.428Z,92452.84
2023-05-21T04:45:27.975Z,92452.97
2023-05-21T04:48:00.819Z,92457.22
2023-05-21T04:50:31.019Z,92445.16
2023-05-21T04:53:01.975Z,92443.44
2023-05-21T04:55:31.362Z,92451.81
2023-05-21T04:58:00.724Z,92454.16
2023-05-21T05:00:30.015Z,92463.16
2023-05-21T05:02:59.489Z,92452.94
2023-05-21T05:05:29.036Z,92451.00
2023-05-21T05:07:58.576Z,92453.81
2023-05-21T05:10:29.488Z,92466.28
2023-05-21T05:12:58.955Z,92464.34
2023-05-21T05:15:28.573Z,92463.00
2023-05-21T05:17:58.683Z,92462.72
2023-05-21T05:20:28.263Z,92473.69
2023-05-21T05:22:57.657Z,92457.09
2023-05-21T05:25:29.106Z,92474.22
2023-05-21T05:27:58.453Z,92462.72
2023-05-21T05:30:27.863Z,92464.50
2023-05-21T05:32:57.252Z,92461.06
2023-05-21T05:35:26.929Z,92482.78
2023-05-21T05:37:56.854Z,92474.56
2023-05-21T05:40:29.093Z,92470.31
2023-05-21T05:42:58.341Z,92469.47
2023-05-21T05:45:27.907Z,92466.16
2023-05-21T05:47:57.324Z,92472.25
2023-05-21T05:50:26.793Z,92482.47
2023-05-21T05:52:56.207Z,92480.53
2023-05-21T05:55:27.406Z,92477.91
2023-05-21T05:57:56.740Z,92480.53
2023-05-21T06:00:26.495Z,92480.53
2023-05-21T06:02:56.009Z,92480.00
2023-05-21T06:05:25.813Z,92477.03
2023-05-21T06:07:55.327Z,92480.88
2023-05-21T06:10:24.859Z,92463.09
2023-05-21T06:12:55.699Z,92480.53
2023-05-21T06:15:25.085Z,92476.94
2023-05-21T06:17:54.625Z,92472.19
2023-05-21T06:20:24.095Z,92473.50
2023-05-21T06:22:53.523Z,92470.56
2023-05-21T06:25:23.312Z,92474.25
2023-05-21T06:27:52.903Z,92465.19
2023-05-21T06:30:26.821Z,92454.19
2023-05-21T06:32:56.481Z,92448.94
2023-05-21T06:35:26.336Z,92456.03
2023-05-21T06:37:55.746Z,92453.44
2023-05-21T06:40:25.123Z,92448.38
2023-05-21T06:42:56.384Z,92456.13
2023-05-21T06:45:27.310Z,92459.91
2023-05-21T06:50:32.491Z,92473.97
2023-05-21T06:53:02.172Z,92479.53
2023-05-21T06:55:31.812Z,92469.84
2023-05-21T06:58:01.236Z,92465.69
2023-05-21T07:00:30.717Z,92476.91
2023-05-21T07:03:00.194Z,92490.09
2023-05-21T07:05:31.263Z,92476.91
2023-05-21T07:08:00.636Z,92472.03
2023-05-21T07:10:29.976Z,92479.28
2023-05-21T07:12:59.385Z,92481.91
2023-05-21T07:15:29.073Z,92481.91
2023-05-21T07:17:58.440Z,92480.91
2023-05-21T07:20:27.912Z,92482.91
2023-05-21T07:22:58.839Z,92484.88
2023-05-21T07:25:28.173Z,92487.19
2023-05-21T07:27:57.574Z,92478.97
2023-05-21T07:30:26.849Z,92474.69
2023-05-21T07:32:56.280Z,92475.00
2023-05-21T07:35:25.679Z,92483.56
2023-05-21T07:37:55.169Z,92479.28
2023-05-21T07:40:26.111Z,92477.66
2023-05-21T07:42:55.550Z,92477.16
2023-05-21T07:45:24.949Z,92472.53
2023-05-21T07:47:54.529Z,92482.94
2023-05-21T07:50:23.998Z,92486.91
2023-05-21T07:52:53.654Z,92481.28
2023-05-21T07:55:24.673Z,92493.34
2023-05-21T07:57:54.139Z,92494.16
2023-05-21T08:00:26.818Z,92498.44
2023-05-21T08:02:56.460Z,92493.97
2023-05-21T08:05:25.974Z,92495.31
2023-05-21T08:07:55.576Z,92493.66
2023-05-21T08:10:26.766Z,92504.53
2023-05-21T08:12:56.206Z,92492.34
2023-05-21T08:15:25.864Z,92491.19
2023-05-21T08:17:55.570Z,92496.00
2023-05-21T08:20:24.869Z,92499.59
2023-05-21T08:22:55.159Z,92492.34
2023-05-21T08:25:25.955Z,92491.69
2023-05-21T08:27:55.829Z,92493.16
2023-05-21T08:30:25.360Z,92499.75
2023-05-21T08:32:55.411Z,92500.09
2023-05-21T08:35:25.120Z,92505.38
2023-05-21T08:37:54.561Z,92492.69
2023-05-21T08:40:25.464Z,92497.66
2023-05-21T08:42:55.126Z,92510.69
2023-05-21T08:45:25.969Z,92507.03
2023-05-21T08:47:59.507Z,92508.22
2023-05-21T08:50:30.529Z,92512.00
2023-05-21T08:53:04.046Z,92506.91
2023-05-21T08:55:44.067Z,92497.66
2023-05-21T08:58:13.956Z,92503.56
2023-05-21T09:00:43.286Z,92497.81
2023-05-21T09:03:14.189Z,92501.44
2023-05-21T09:05:44.937Z,92494.50
2023-05-21T09:08:20.185Z,92505.72
2023-05-21T09:10:53.231Z,92498.44
2023-05-21T09:13:23.552Z,92502.09
2023-05-21T09:15:53.378Z,92498.78
2023-05-21T09:18:22.869Z,92495.47
2023-05-21T09:20:54.279Z,92498.72
2023-05-21T09:23:23.786Z,92501.31
2023-05-21T09:25:54.546Z,92493.38
2023-05-21T09:28:23.970Z,92515.34
2023-05-21T09:30:55.173Z,92485.19
2023-05-21T09:33:29.856Z,92506.19
2023-05-21T09:35:59.455Z,92508.44
2023-05-21T09:38:29.721Z,92506.44
2023-05-21T09:41:01.108Z,92489.00
2023-05-21T09:43:30.943Z,92489.03
2023-05-21T09:46:02.197Z,92471.97
2023-05-21T09:50:32.517Z,92477.84
2023-05-21T09:53:01.966Z,92475.47
2023-05-21T09:55:31.602Z,92487.25
2023-05-21T09:58:02.813Z,92480.16
2023-05-21T10:00:32.645Z,92475.81
2023-05-21T10:03:04.131Z,92475.28
2023-05-21T10:05:35.943Z,92486.19
2023-05-21T10:08:07.016Z,92482.16
2023-05-21T10:10:38.640Z,92477.59
2023-05-21T10:13:10.398Z,92494.53
2023-05-21T10:15:44.330Z,92484.13
2023-05-21T10:18:15.423Z,92486.22
2023-05-21T10:20:46.736Z,92479.97
2023-05-21T10:23:16.724Z,92475.59
2023-05-21T10:25:47.508Z,92479.19
2023-05-21T10:28:19.367Z,92481.00
2023-05-21T10:30:49.164Z,92486.72
2023-05-21T10:33:19.586Z,92481.69
2023-05-21T10:35:53.344Z,92480.56
2023-05-21T10:38:23.230Z,92475.75
2023-05-21T10:40:53.310Z,92479.28
2023-05-21T10:43:47.705Z,92473.91
2023-05-21T10:46:59.487Z,92480.03
2023-05-21T10:49:55.733Z,92491.75
2023-05-21T10:52:52.350Z,92494.91
2023-05-21T10:55:39.008Z,92490.53
2023-05-21T10:58:53.211Z,92487.81
2023-05-21T11:01:22.825Z,92482.50
2023-05-21T11:03:53.054Z,92494.19
2023-05-21T11:06:28.362Z,92503.31
2023-05-21T11:09:00.433Z,92487.75
2023-05-21T11:11:48.799Z,92488.13
2023-05-21T11:14:35.472Z,92500.72
2023-05-21T11:17:10.092Z,92497.41
2023-05-21T11:19:43.590Z,92506.25
2023-05-21T11:22:24.348Z,92508.84
2023-05-21T11:24:57.133Z,92503.91
2023-05-21T11:27:37.385Z,92499.88
2023-05-21T11:30:08.958Z,92507.72
2023-05-21T11:32:42.132Z,92505.91
2023-05-21T11:35:16.503Z,92501.63
2023-05-21T11:37:46.775Z,92502.78
2023-05-21T11:40:26.198Z,92504.09
2023-05-21T11:42:57.686Z,92498.25
2023-05-21T11:45:33.649Z,92496.63
2023-05-21T11:48:03.403Z,92503.16
2023-05-21T11:50:34.266Z,92499.84
2023-05-21T11:53:03.826Z,92499.06
2023-05-21T11:55:34.894Z,92503.56
2023-05-21T11:58:05.280Z,92497.16
2023-05-21T12:00:41.476Z,92498.03
2023-05-21T12:03:13.392Z,92500.44
2023-05-21T12:05:47.830Z,92509.22
2023-05-21T12:08:26.125Z,92511.34
2023-05-21T12:11:02.080Z,92514.50
2023-05-21T12:13:32.347Z,92515.00
2023-05-21T12:16:02.276Z,92510.50
2023-05-21T12:18:32.486Z,92508.34
2023-05-21T12:21:02.854Z,92510.63
2023-05-21T12:23:32.685Z,92505.19
2023-05-21T12:26:04.621Z,92514.06
2023-05-21T12:28:34.549Z,92511.59
2023-05-21T12:31:03.878Z,92513.53
2023-05-21T12:33:37.075Z,92509.34
2023-05-21T12:36:07.508Z,92514.41
2023-05-21T12:38:36.984Z,92506.78
2023-05-21T12:41:08.664Z,92509.06
2023-05-21T12:43:38.227Z,92513.66
2023-05-21T12:46:07.719Z,92513.66
2023-05-21T12:50:32.299Z,92518.91
2023-05-21T12:53:01.843Z,92510.13
2023-05-21T12:55:31.781Z,92505.63
2023-05-21T12:58:08.849Z,92514.34
2023-05-21T13:00:39.106Z,92505.75
2023-05-21T13:03:08.880Z,92501.44
2023-05-21T13:05:43.170Z,92494.09
2023-05-21T13:08:14.422Z,92491.59
2023-05-21T13:10:44.012Z,92504.16
2023-05-21T13:13:13.554Z,92510.72
2023-05-21T13:15:42.869Z,92509.50
2023-05-21T13:18:13.064Z,92516.97
2023-05-21T13:20:44.051Z,92521.50
2023-05-21T13:23:13.690Z,92520.03
2023-05-21T13:25:43.018Z,92514.63
2023-05-21T13:28:15.309Z,92514.63
2023-05-21T13:30:44.644Z,92513.47
2023-05-21T13:33:14.239Z,92511.50
2023-05-21T13:35:45.958Z,92505.03
2023-05-21T13:38:15.368Z,92501.25
2023-05-21T13:40:44.734Z,92488.63
2023-05-21T13:43:14.115Z,92490.47
2023-05-21T13:45:44.124Z,92479.78
2023-05-21T13:48:13.635Z,92483.44
2023-05-21T13:50:44.557Z,92472.13
2023-05-21T13:53:14.006Z,92480.19
2023-05-21T13:55:43.467Z,92479.06
2023-05-21T13:58:13.099Z,92470.19
2023-05-21T14:00:43.403Z,92457.34
2023-05-21T14:03:13.079Z,92452.41
2023-05-21T14:05:44.166Z,92456.19
2023-05-21T14:08:13.617Z,92456.03
2023-05-21T14:10:42.962Z,92455.72
2023-05-21T14:13:19.444Z,92450.47
2023-05-21T14:15:49.888Z,92441.88
2023-05-21T14:18:19.312Z,92430.50
2023-05-21T14:20:50.284Z,92441.41
2023-05-21T14:23:19.765Z,92430.66
2023-05-21T14:25:49.179Z,92425.72
2023-05-21T14:28:18.728Z,92420.13
2023-05-21T14:30:48.125Z,92416.34
2023-05-21T14:33:18.455Z,92416.84
2023-05-21T14:35:49.353Z,92418.34
2023-05-21T14:38:18.736Z,92419.50
2023-05-21T14:40:48.132Z,92414.25
2023-05-21T14:43:17.600Z,92418.53
2023-05-21T14:45:47.122Z,92414.94
2023-05-21T14:48:18.851Z,92409.47
2023-05-21T14:50:49.687Z,92413.94
2023-05-21T14:53:20.423Z,92406.19
2023-05-21T14:55:50.575Z,92409.69
2023-05-21T14:58:20.141Z,92414.78
2023-05-21T15:00:49.679Z,92412.53
2023-05-21T15:03:19.238Z,92412.66
2023-05-21T15:05:50.260Z,92404.88
2023-05-21T15:08:19.717Z,92409.72
2023-05-21T15:10:49.182Z,92408.75
2023-05-21T15:13:18.635Z,92414.03
2023-05-21T15:15:48.338Z,92410.53
2023-05-21T15:18:17.857Z,92411.56
2023-05-21T15:20:48.895Z,92412.19
2023-05-21T15:23:18.370Z,92408.41
2023-05-21T15:25:47.906Z,92407.28
2023-05-21T15:28:17.525Z,92410.56
2023-05-21T15:30:47.072Z,92412.88
2023-05-21T15:33:16.430Z,92409.75
2023-05-21T15:35:46.054Z,92410.41
2023-05-21T15:38:17.117Z,92407.59
2023-05-21T15:40:46.648Z,92408.09
2023-05-21T15:43:16.160Z,92405.13
2023-05-21T15:45:45.644Z,92409.41
2023-05-21T15:50:32.158Z,92410.06
2023-05-21T15:53:01.682Z,92415.50
2023-05-21T15:55:34.439Z,92414.19
2023-05-21T15:58:05.268Z,92416.66
2023-05-21T16:00:35.237Z,92411.03
2023-05-21T16:03:04.967Z,92416.66
2023-05-21T16:05:36.131Z,92415.31
2023-05-21T16:08:06.334Z,92417.00
2023-05-21T16:10:35.730Z,92412.34
2023-05-21T16:13:05.122Z,92413.34
2023-05-21T16:15:34.670Z,92412.22
2023-05-21T16:18:04.340Z,92399.84
2023-05-21T16:20:35.737Z,92406.59
2023-05-21T16:23:06.555Z,92407.41
2023-05-21T16:25:36.779Z,92396.84
2023-05-21T16:42:48.141Z,92411.03
2023-05-21T16:45:20.792Z,92406.41
2023-05-21T16:47:53.744Z,92412.16
2023-05-21T16:50:23.332Z,92406.38
2023-05-21T16:52:52.843Z,92409.84
2023-05-21T16:55:22.561Z,92406.88
2023-05-21T16:57:53.715Z,92413.47
2023-05-21T17:00:23.398Z,92415.88
2023-05-21T17:02:53.090Z,92407.97
2023-05-21T17:05:23.783Z,92415.88
2023-05-21T17:07:53.321Z,92412.72
2023-05-21T17:10:22.849Z,92414.38
2023-05-21T17:12:54.038Z,92417.50
2023-05-21T17:15:23.749Z,92417.69
2023-05-21T17:17:53.366Z,92423.59
2023-05-21T17:20:23.083Z,92417.34
2023-05-21T17:22:52.726Z,92427.75
2023-05-21T17:25:22.692Z,92426.91
2023-05-21T17:27:54.328Z,92425.44
2023-05-21T17:30:23.852Z,92417.38
2023-05-21T17:32:53.879Z,92421.50
2023-05-21T17:35:23.540Z,92430.41
2023-05-21T17:37:53.689Z,92426.91
2023-05-21T17:40:24.739Z,92425.94
2023-05-21T17:42:56.047Z,92434.19
2023-05-21T17:45:25.611Z,92431.56
2023-05-21T17:47:56.678Z,92440.78
2023-05-21T17:50:28.596Z,92438.13
2023-05-21T17:52:58.245Z,92440.91
2023-05-21T17:55:27.801Z,92447.31
2023-05-21T17:57:58.870Z,92445.00
2023-05-21T18:00:28.485Z,92438.09
2023-05-21T18:02:59.308Z,92443.66
2023-05-21T18:05:28.991Z,92445.66
2023-05-21T18:07:58.750Z,92442.19
2023-05-21T18:10:28.462Z,92442.19
2023-05-21T18:12:59.493Z,92449.91
2023-05-21T18:15:29.062Z,92451.72
2023-05-21T18:17:58.714Z,92452.56
2023-05-21T18:20:28.237Z,92457.00
2023-05-21T18:22:57.694Z,92454.41
2023-05-21T18:25:27.202Z,92463.44
2023-05-21T18:27:58.150Z,92461.97
2023-05-21T18:30:27.661Z,92467.38
2023-05-21T18:32:57.427Z,92464.09
2023-05-21T18:35:27.476Z,92467.38
2023-05-21T18:37:57.102Z,92465.59
2023-05-21T18:40:30.487Z,92468.22
2023-05-21T18:43:03.743Z,92479.72
2023-05-21T18:45:33.382Z,92476.13
2023-05-21T18:50:32.788Z,92479.06
2023-05-21T18:53:02.716Z,92479.22
2023-05-21T18:55:32.302Z,92487.59
2023-05-21T18:58:02.012Z,92493.19
2023-05-21T19:00:34.262Z,92492.56
2023-05-21T19:03:03.916Z,92488.78
2023-05-21T19:05:35.221Z,92498.50
2023-05-21T19:08:05.369Z,92498.00
2023-05-21T19:10:35.345Z,92502.91
2023-05-21T19:13:06.421Z,92498.50
2023-05-21T19:15:36.283Z,92491.06
2023-05-21T19:18:06.480Z,92496.34
2023-05-21T19:20:38.317Z,92494.38
2023-05-21T19:23:08.091Z,92497.66
2023-05-21T19:25:38.589Z,92497.00
2023-05-21T19:28:08.162Z,92493.72
2023-05-21T19:30:38.148Z,92489.22
2023-05-21T19:33:08.108Z,92488.41
2023-05-21T19:35:39.311Z,92493.66
2023-05-21T19:38:08.924Z,92490.00
2023-05-21T19:40:38.870Z,92492.47
2023-05-21T19:43:08.617Z,92482.63
2023-05-21T19:45:38.177Z,92480.63
2023-05-21T19:48:08.786Z,92485.72
2023-05-21T19:50:39.849Z,92480.25
2023-05-21T19:53:09.418Z,92485.00
2023-05-21T19:55:39.036Z,92494.09
2023-05-21T19:58:09.305Z,92487.38
2023-05-21T20:00:39.450Z,92486.69
2023-05-21T20:03:09.809Z,92489.69
2023-05-21T20:05:41.791Z,92488.72
2023-05-21T20:08:11.479Z,92484.25
2023-05-21T20:10:42.713Z,92486.25
2023-05-21T20:13:12.386Z,92490.34
2023-05-21T20:15:41.882Z,92489.06
2023-05-21T20:18:13.099Z,92489.22
2023-05-21T20:20:44.234Z,92488.41
2023-05-21T20:23:13.801Z,92489.22
2023-05-21T20:25:43.343Z,92486.06
2023-05-21T20:28:12.944Z,92492.63
2023-05-21T20:30:57.741Z,92485.72
2023-05-21T20:33:28.740Z,92485.72
2023-05-21T20:36:00.358Z,92492.94
2023-05-21T20:38:33.455Z,92491.66
2023-05-21T20:41:03.063Z,92489.53
2023-05-21T20:43:33.163Z,92494.97
2023-05-21T20:46:02.869Z,92490.81
2023-05-21T20:48:32.585Z,92487.19
2023-05-21T20:51:04.745Z,92492.16
2023-05-21T20:53:34.552Z,92500.41
2023-05-21T20:56:08.367Z,92492.00
2023-05-21T20:58:40.240Z,92501.56
2023-05-21T21:01:10.889Z,92506.66
2023-05-21T21:03:41.577Z,92497.47
2023-05-21T21:06:12.895Z,92501.22
2023-05-21T21:08:46.456Z,92497.25
2023-05-21T21:11:16.271Z,92499.41
2023-05-21T21:13:45.859Z,92501.34
2023-05-21T21:16:15.817Z,92501.34
2023-05-21T21:18:46.274Z,92508.94
2023-05-21T21:21:17.534Z,92501.19
2023-05-21T21:23:47.074Z,92497.06
2023-05-21T21:26:17.254Z,92501.66
2023-05-21T21:28:46.880Z,92494.91
2023-05-21T21:31:17.835Z,92497.84
2023-05-21T21:33:47.476Z,92486.34
2023-05-21T21:36:18.595Z,92486.19
2023-05-21T21:38:48.166Z,92484.69
2023-05-21T21:41:17.890Z,92485.97
2023-05-21T21:43:47.468Z,92487.13
2023-05-21T21:46:17.269Z,92489.91
2023-05-21T21:50:32.029Z,92496.47
2023-05-21T21:53:03.774Z,92494.50
2023-05-21T21:55:34.658Z,92486.44
2023-05-21T21:58:04.105Z,92485.94
2023-05-21T22:00:33.819Z,92494.66
2023-05-21T22:03:03.383Z,92491.53
2023-05-21T22:05:34.551Z,92484.75
2023-05-21T22:08:05.222Z,92490.66
2023-05-21T22:10:38.280Z,92481.41
2023-05-21T22:13:08.228Z,92490.25
2023-05-21T22:15:38.084Z,92481.72
2023-05-21T22:18:09.944Z,92478.56
2023-05-21T22:20:41.591Z,92483.00
2023-05-21T22:23:11.089Z,92483.31
2023-05-21T22:25:42.523Z,92486.19
2023-05-21T22:28:12.189Z,92482.25
2023-05-21T22:30:41.867Z,92480.56
2023-05-21T22:33:11.759Z,92477.41
2023-05-21T22:35:42.750Z,92481.03
2023-05-21T22:38:12.368Z,92483.31
2023-05-21T22:40:42.005Z,92484.06
2023-05-21T22:43:11.586Z,92485.88
2023-05-21T22:45:41.085Z,92478.16
2023-05-21T22:48:11.874Z,92479.63
2023-05-21T22:50:43.068Z,92483.59
2023-05-21T22:53:12.646Z,92481.78
2023-05-21T22:55:41.991Z,92477.84
2023-05-21T22:58:11.658Z,92476.03
2023-05-21T23:00:41.308Z,92478.97
2023-05-21T23:03:11.609Z,92477.47
2023-05-21T23:05:45.211Z,92475.97
2023-05-21T23:08:14.965Z,92470.38
2023-05-21T23:10:44.578Z,92475.16
2023-05-21T23:13:14.245Z,92463.28
2023-05-21T23:15:44.096Z,92469.66
2023-05-21T23:18:13.834Z,92469.00
2023-05-21T23:20:45.502Z,92469.47
2023-05-21T23:23:15.221Z,92464.66
2023-05-21T23:25:45.166Z,92466.13
2023-05-21T23:28:14.765Z,92456.91
2023-05-21T23:30:44.201Z,92458.72
2023-05-21T23:33:14.069Z,92462.16
2023-05-21T23:35:45.277Z,92468.25
2023-05-21T23:38:14.859Z,92455.09
2023-05-21T23:40:44.645Z,92462.44
2023-05-21T23:43:14.374Z,92457.34
2023-05-21T23:45:44.121Z,92446.84
2023-05-21T23:48:13.867Z,92450.44
2023-05-21T23:50:45.117Z,92456.16
2023-05-21T23:53:14.766Z,92446.63
2023-05-21T23:55:44.591Z,92446.94
2023-05-21T23:58:14.439Z,92450.22
